createdAt,value
2018-07-05T00:00:52.725Z,14.20
2018-07-05T00:03:32.401Z,14.20
2018-07-05T00:06:12.128Z,14.20
2018-07-05T00:08:51.685Z,14.20
2018-07-05T00:11:34.804Z,14.10
2018-07-05T00:14:14.860Z,14.10
2018-07-05T00:16:54.341Z,14.00
2018-07-05T00:19:33.849Z,13.80
2018-07-05T00:22:13.716Z,13.60
2018-07-05T00:24:53.152Z,13.50
2018-07-05T00:27:32.610Z,13.40
2018-07-05T00:30:12.656Z,13.30
2018-07-05T00:32:52.091Z,13.30
2018-07-05T00:35:32.143Z,13.40
2018-07-05T00:38:11.943Z,13.40
2018-07-05T00:40:52.620Z,13.30
2018-07-05T00:43:32.261Z,13.20
2018-07-05T00:46:12.057Z,13.10
2018-07-05T00:48:52.040Z,13.10
2018-07-05T00:51:32.596Z,13.20
2018-07-05T00:54:12.288Z,13.30
2018-07-05T00:56:52.040Z,13.50
2018-07-05T00:59:31.846Z,13.60
2018-07-05T01:02:12.593Z,13.80
2018-07-05T01:04:52.249Z,13.90
2018-07-05T01:07:32.531Z,13.80
2018-07-05T01:10:12.133Z,13.70
2018-07-05T01:12:52.858Z,13.80
2018-07-05T01:15:32.365Z,13.80
2018-07-05T01:18:12.193Z,13.80
2018-07-05T01:20:51.949Z,13.80
2018-07-05T01:23:32.574Z,14.00
2018-07-05T01:26:12.054Z,14.10
2018-07-05T01:28:52.068Z,14.30
2018-07-05T01:31:32.779Z,14.30
2018-07-05T01:34:12.296Z,14.10
2018-07-05T01:36:51.964Z,14.00
2018-07-05T01:39:32.671Z,13.90
2018-07-05T01:42:12.256Z,13.80
2018-07-05T01:44:52.112Z,13.80
2018-07-05T01:47:31.873Z,13.70
2018-07-05T01:50:11.466Z,13.60
2018-07-05T01:52:52.376Z,13.60
2018-07-05T01:55:31.968Z,13.70
2018-07-05T01:58:12.817Z,14.00
2018-07-05T02:00:52.425Z,14.30
2018-07-05T02:03:32.178Z,14.50
2018-07-05T02:06:11.749Z,14.60
2018-07-05T02:08:52.714Z,14.50
2018-07-05T02:11:32.515Z,14.40
2018-07-05T02:14:12.040Z,14.20
2018-07-05T02:16:52.096Z,14.10
2018-07-05T02:19:32.076Z,14.10
2018-07-05T02:22:12.048Z,14.00
2018-07-05T02:24:51.932Z,14.00
2018-07-05T02:27:32.720Z,14.10
2018-07-05T02:30:12.221Z,14.30
2018-07-05T02:32:52.494Z,14.50
2018-07-05T02:35:32.220Z,14.70
2018-07-05T02:38:17.677Z,15.00
2018-07-05T02:40:57.269Z,15.20
2018-07-05T02:43:36.817Z,15.40
2018-07-05T02:46:16.344Z,15.50
2018-07-05T02:48:59.684Z,15.60
2018-07-05T02:51:39.585Z,15.70
2018-07-05T02:54:23.429Z,15.80
2018-07-05T02:57:03.026Z,15.80
2018-07-05T02:59:42.591Z,15.90
2018-07-05T03:02:22.246Z,15.90
2018-07-05T03:05:02.288Z,16.00
2018-07-05T03:07:41.884Z,16.10
2018-07-05T03:10:21.400Z,16.20
2018-07-05T03:13:01.973Z,16.20
2018-07-05T03:15:42.677Z,16.30
2018-07-05T03:18:22.235Z,16.30
2018-07-05T03:21:01.799Z,16.40
2018-07-05T03:23:43.280Z,16.50
2018-07-05T03:26:22.888Z,16.50
2018-07-05T03:29:02.517Z,16.60
2018-07-05T03:31:42.089Z,16.60
2018-07-05T03:34:21.613Z,16.60
2018-07-05T03:37:02.887Z,16.60
2018-07-05T03:39:42.356Z,16.70
2018-07-05T03:42:22.536Z,16.80
2018-07-05T03:45:02.157Z,16.90
2018-07-05T03:47:41.891Z,16.90
2018-07-05T03:50:21.417Z,17.00
2018-07-05T03:53:02.704Z,17.00
2018-07-05T03:55:42.394Z,17.00
2018-07-05T03:58:22.104Z,17.00
2018-07-05T04:01:02.276Z,17.00
2018-07-05T04:03:42.225Z,17.00
2018-07-05T04:06:22.252Z,17.00
2018-07-05T04:11:53.714Z,17.10
2018-07-05T04:14:33.696Z,17.10
2018-07-05T04:17:12.978Z,17.20
2018-07-05T04:19:53.088Z,17.20
2018-07-05T04:22:32.805Z,17.30
2018-07-05T04:25:12.422Z,17.30
2018-07-05T04:27:51.936Z,17.30
2018-07-05T04:30:31.918Z,17.40
2018-07-05T04:33:12.701Z,17.40
2018-07-05T04:35:52.443Z,17.50
2018-07-05T04:38:32.122Z,17.50
2018-07-05T04:41:11.700Z,17.60
2018-07-05T04:43:52.357Z,17.80
2018-07-05T04:46:32.791Z,17.90
2018-07-05T04:49:12.383Z,18.10
2018-07-05T04:51:51.901Z,18.30
2018-07-05T04:54:32.536Z,18.50
2018-07-05T04:57:12.755Z,18.60
2018-07-05T04:59:52.445Z,18.90
2018-07-05T05:02:31.905Z,19.10
2018-07-05T05:05:12.922Z,19.30
2018-07-05T05:07:55.393Z,19.50
2018-07-05T05:10:35.383Z,19.60
2018-07-05T05:13:18.838Z,19.70
2018-07-05T05:16:02.296Z,19.80
2018-07-05T05:18:41.664Z,20.00
2018-07-05T05:21:21.714Z,20.60
2018-07-05T05:24:02.720Z,21.00
2018-07-05T05:26:42.287Z,21.40
2018-07-05T05:29:22.008Z,21.80
2018-07-05T05:32:01.543Z,22.40
2018-07-05T05:34:41.170Z,22.60
2018-07-05T05:37:20.793Z,23.00
2018-07-05T05:40:04.293Z,23.40
2018-07-05T05:42:43.879Z,23.00
2018-07-05T05:45:23.364Z,22.80
2018-07-05T05:48:02.924Z,23.10
2018-07-05T05:50:42.790Z,23.70
2018-07-05T05:53:22.979Z,24.30
2018-07-05T05:56:02.597Z,24.70
2018-07-05T05:58:42.650Z,25.10
2018-07-05T06:01:22.962Z,25.50
2018-07-05T06:04:02.568Z,25.60
2018-07-05T06:06:42.662Z,25.60
2018-07-05T06:09:22.076Z,26.10
2018-07-05T06:12:01.490Z,26.60
2018-07-05T06:14:40.981Z,26.70
2018-07-05T06:17:20.384Z,27.20
2018-07-05T06:19:59.799Z,28.20
2018-07-05T06:25:14.640Z,29.50
2018-07-05T06:27:54.284Z,29.40
2018-07-05T06:30:34.065Z,28.90
2018-07-05T06:33:13.686Z,28.10
2018-07-05T06:35:53.280Z,27.90
2018-07-05T06:41:09.793Z,28.00
2018-07-05T06:43:49.320Z,28.00
2018-07-05T06:46:33.910Z,27.70
2018-07-05T06:49:13.900Z,27.40
2018-07-05T06:51:53.955Z,28.00
2018-07-05T06:54:33.274Z,28.20
2018-07-05T06:57:13.016Z,28.30
2018-07-05T06:59:52.563Z,28.00
2018-07-05T07:02:32.145Z,27.30
2018-07-05T07:05:11.741Z,26.70
2018-07-05T07:07:52.582Z,26.20
2018-07-05T07:10:32.149Z,25.60
2018-07-05T07:13:12.927Z,25.70
2018-07-05T07:15:52.529Z,25.90
2018-07-05T07:18:32.160Z,26.50
2018-07-05T07:21:12.213Z,28.00
2018-07-05T07:23:52.048Z,28.90
2018-07-05T07:26:32.337Z,30.00
2018-07-05T07:29:11.964Z,31.10
2018-07-05T07:31:51.728Z,31.50
2018-07-05T07:34:31.224Z,32.30
2018-07-05T07:37:12.084Z,31.50
2018-07-05T07:39:51.581Z,30.60
2018-07-05T07:44:53.174Z,29.50
2018-07-05T07:47:29.015Z,30.50
2018-07-05T07:49:56.786Z,30.90
2018-07-05T07:52:24.024Z,31.50
2018-07-05T07:54:51.212Z,32.00
2018-07-05T07:57:26.218Z,32.40
2018-07-05T07:59:56.730Z,31.80
2018-07-05T08:02:28.327Z,31.20
2018-07-05T08:04:55.553Z,31.80
2018-07-05T08:07:26.841Z,32.70
2018-07-05T08:09:57.909Z,33.00
2018-07-05T08:12:26.103Z,34.00
2018-07-05T08:14:53.264Z,34.60
2018-07-05T08:17:27.258Z,34.20
2018-07-05T08:19:55.937Z,33.90
2018-07-05T08:22:23.168Z,33.20
2018-07-05T08:24:50.430Z,32.60
2018-07-05T08:27:17.630Z,32.90
2018-07-05T08:29:46.592Z,33.20
2018-07-05T08:32:13.774Z,33.00
2018-07-05T08:34:47.820Z,33.20
2018-07-05T08:37:15.021Z,34.80
2018-07-05T08:39:42.203Z,35.90
2018-07-05T08:42:09.385Z,36.80
2018-07-05T08:44:36.634Z,37.70
2018-07-05T10:01:17.345Z,39.60
2018-07-05T10:03:44.520Z,40.40
2018-07-05T10:06:11.823Z,39.70
2018-07-05T10:08:46.482Z,39.80
2018-07-05T10:11:13.671Z,40.50
2018-07-05T10:13:41.070Z,41.10
2018-07-05T10:16:08.080Z,41.50
2018-07-05T10:18:36.278Z,41.70
2018-07-05T10:21:03.885Z,41.00
2018-07-05T10:25:58.550Z,40.20
2018-07-05T10:28:25.725Z,41.00
2018-07-05T10:31:05.263Z,41.80
2018-07-05T10:33:48.921Z,41.90
2018-07-05T10:36:16.126Z,40.70
2018-07-05T10:38:47.386Z,39.70
2018-07-05T10:41:26.824Z,41.00
2018-07-05T10:44:06.318Z,41.90
2018-07-05T10:46:45.834Z,41.50
2018-07-05T10:49:25.382Z,40.60
2018-07-05T10:52:09.169Z,39.80
2018-07-05T10:54:48.735Z,38.90
2018-07-05T10:57:28.608Z,39.70
2018-07-05T11:00:08.172Z,39.90
2018-07-05T11:02:49.372Z,38.50
2018-07-05T11:05:28.978Z,38.80
2018-07-05T11:08:08.507Z,39.60
2018-07-05T11:10:48.184Z,39.80
2018-07-05T11:13:28.938Z,38.40
2018-07-05T11:16:08.787Z,37.40
2018-07-05T11:18:48.851Z,38.60
2018-07-05T11:21:28.538Z,39.60
2018-07-05T11:24:08.003Z,40.20
2018-07-05T11:26:47.610Z,40.00
2018-07-05T11:29:27.208Z,38.80
2018-07-05T11:32:10.492Z,36.80
2018-07-05T11:34:54.060Z,37.30
2018-07-05T11:37:33.493Z,39.20
2018-07-05T11:40:13.744Z,40.60
2018-07-05T11:42:53.532Z,40.10
2018-07-05T11:45:32.983Z,40.30
2018-07-05T11:48:12.598Z,40.60
2018-07-05T11:53:29.206Z,40.00
2018-07-05T11:56:08.919Z,39.80
2018-07-05T11:58:48.613Z,36.30
2018-07-05T12:01:28.126Z,36.50
2018-07-05T12:04:09.201Z,37.80
2018-07-05T12:06:50.234Z,37.80
2018-07-05T12:09:29.508Z,38.80
2018-07-05T12:12:13.787Z,39.40
2018-07-05T12:14:53.100Z,39.90
2018-07-05T12:17:32.625Z,39.80
2018-07-05T12:20:12.245Z,41.10
2018-07-05T12:22:53.089Z,42.20
2018-07-05T12:25:32.665Z,41.10
2018-07-05T12:28:12.057Z,38.90
2018-07-05T12:30:53.757Z,37.90
2018-07-05T12:33:33.342Z,40.40
2018-07-05T12:36:13.154Z,41.40
2018-07-05T12:38:52.722Z,42.10
2018-07-05T12:41:32.395Z,42.50
2018-07-05T12:44:13.221Z,42.20
2018-07-05T12:46:52.725Z,42.60
2018-07-05T12:52:24.286Z,41.70
2018-07-05T12:55:04.061Z,42.60
2018-07-05T12:57:43.617Z,41.70
2018-07-05T13:00:23.299Z,41.60
2018-07-05T13:03:02.909Z,41.90
2018-07-05T13:05:42.495Z,40.20
2018-07-05T13:08:22.136Z,40.10
2018-07-05T13:11:01.594Z,41.00
2018-07-05T13:13:42.519Z,41.50
2018-07-05T13:16:22.140Z,41.60
2018-07-05T13:19:03.012Z,42.60
2018-07-05T13:21:42.640Z,42.60
2018-07-05T13:24:22.228Z,43.30
2018-07-05T13:27:01.885Z,42.20
2018-07-05T13:29:41.303Z,41.00
2018-07-05T13:32:20.740Z,40.00
2018-07-05T13:35:02.914Z,37.80
2018-07-05T13:37:42.615Z,37.00
2018-07-05T13:40:22.530Z,38.20
2018-07-05T13:43:02.156Z,39.50
2018-07-05T13:48:15.444Z,39.10
2018-07-05T13:50:55.090Z,38.40
2018-07-05T13:53:34.623Z,38.70
2018-07-05T13:56:14.481Z,37.40
2018-07-05T13:58:54.364Z,36.70
2018-07-05T14:01:34.002Z,37.70
2018-07-05T14:04:13.589Z,38.30
2018-07-05T14:06:53.629Z,36.80
2018-07-05T14:09:33.246Z,36.70
2018-07-05T14:12:12.798Z,37.00
2018-07-05T14:14:52.857Z,36.60
2018-07-05T14:17:32.345Z,38.20
2018-07-05T14:20:11.789Z,37.80
2018-07-05T14:22:53.244Z,36.30
2018-07-05T14:25:32.694Z,37.30
2018-07-05T14:28:12.259Z,37.60
2018-07-05T14:30:52.839Z,36.80
2018-07-05T14:33:32.623Z,37.10
2018-07-05T14:36:12.203Z,35.00
2018-07-05T14:38:52.986Z,34.20
2018-07-05T14:41:32.970Z,36.10
2018-07-05T14:44:12.710Z,36.60
2018-07-05T14:46:53.419Z,36.30
2018-07-05T14:49:32.881Z,37.80
2018-07-05T14:52:12.437Z,38.50
2018-07-05T14:54:52.159Z,37.70
2018-07-05T14:57:33.215Z,37.10
2018-07-05T15:00:12.731Z,38.20
2018-07-05T15:02:52.276Z,38.20
2018-07-05T15:05:31.999Z,36.20
2018-07-05T15:08:11.543Z,35.50
2018-07-05T15:10:51.104Z,35.20
2018-07-05T15:13:32.862Z,34.80
2018-07-05T15:16:12.673Z,34.40
2018-07-05T15:18:52.347Z,34.60
2018-07-05T15:21:31.920Z,34.70
2018-07-05T15:24:11.483Z,35.20
2018-07-05T15:29:25.741Z,36.70
2018-07-05T15:32:05.379Z,35.20
2018-07-05T15:34:45.045Z,32.70
2018-07-05T15:37:24.399Z,32.70
2018-07-05T15:40:04.177Z,33.90
2018-07-05T15:42:43.862Z,34.60
2018-07-05T15:45:23.354Z,34.70
2018-07-05T15:48:03.413Z,35.10
2018-07-05T15:50:43.045Z,34.30
2018-07-05T15:53:22.781Z,32.40
2018-07-05T15:56:02.529Z,31.60
2018-07-05T15:58:42.207Z,30.80
2018-07-05T16:01:22.870Z,30.20
2018-07-05T16:04:02.522Z,30.70
2018-07-05T16:06:43.064Z,31.60
2018-07-05T16:09:22.525Z,31.70
2018-07-05T16:12:02.590Z,31.50
2018-07-05T16:14:42.301Z,31.30
2018-07-05T16:17:21.790Z,30.90
2018-07-05T16:22:54.577Z,31.70
2018-07-05T16:28:07.813Z,31.70
2018-07-05T16:30:47.492Z,32.10
2018-07-05T16:33:30.322Z,30.60
2018-07-05T16:36:13.912Z,29.70
2018-07-05T16:38:53.909Z,29.00
2018-07-05T16:41:33.501Z,28.50
2018-07-05T16:44:13.100Z,28.40
2018-07-05T16:46:52.713Z,28.40
2018-07-05T16:49:32.359Z,28.40
2018-07-05T16:52:12.779Z,28.30
2018-07-05T16:54:52.384Z,28.10
2018-07-05T17:00:09.321Z,27.80
2018-07-05T17:02:53.276Z,27.80
2018-07-05T17:05:32.734Z,27.80
2018-07-05T17:08:12.934Z,27.70
2018-07-05T17:10:52.585Z,27.70
2018-07-05T17:13:32.258Z,27.60
2018-07-05T17:16:11.942Z,27.50
2018-07-05T17:18:51.507Z,27.40
2018-07-05T17:21:33.728Z,27.30
2018-07-05T17:24:13.300Z,27.30
2018-07-05T17:26:52.515Z,27.30
2018-07-05T17:29:33.331Z,27.20
2018-07-05T17:32:13.180Z,27.20
2018-07-05T17:34:52.909Z,27.20
2018-07-05T17:37:32.673Z,27.10
2018-07-05T17:40:12.113Z,27.00
2018-07-05T17:42:52.680Z,26.90
2018-07-05T17:45:32.205Z,26.90
2018-07-05T17:48:11.830Z,26.80
2018-07-05T17:50:51.546Z,26.70
2018-07-05T17:53:33.440Z,26.60
2018-07-05T17:56:12.948Z,26.80
2018-07-05T17:58:53.094Z,27.20
2018-07-05T18:01:33.185Z,27.70
2018-07-05T18:06:46.361Z,27.80
2018-07-05T18:09:29.029Z,27.70
2018-07-05T18:12:09.694Z,27.60
2018-07-05T18:14:49.320Z,27.50
2018-07-05T18:17:32.702Z,27.40
2018-07-05T18:20:12.220Z,27.30
2018-07-05T18:25:43.111Z,26.90
2018-07-05T18:28:22.970Z,27.00
2018-07-05T18:31:02.457Z,26.80
2018-07-05T18:33:43.056Z,26.50
2018-07-05T18:36:22.558Z,26.40
2018-07-05T18:39:02.633Z,26.20
2018-07-05T18:41:42.142Z,26.10
2018-07-05T18:44:22.732Z,25.90
2018-07-05T18:47:02.395Z,25.80
2018-07-05T18:49:41.998Z,25.50
2018-07-05T18:52:21.545Z,25.00
2018-07-05T18:55:01.151Z,24.60
2018-07-05T18:57:40.671Z,24.30
2018-07-05T19:00:23.191Z,24.20
2018-07-05T19:03:02.710Z,23.90
2018-07-05T19:05:42.286Z,23.70
2018-07-05T19:08:23.226Z,23.70
2018-07-05T19:11:02.629Z,23.60
2018-07-05T19:13:42.333Z,23.40
2018-07-05T19:16:21.822Z,23.30
2018-07-05T19:19:01.394Z,23.10
2018-07-05T19:21:42.366Z,22.90
2018-07-05T19:24:22.999Z,22.90
2018-07-05T19:27:02.427Z,22.80
2018-07-05T19:29:42.827Z,22.70
2018-07-05T19:32:22.957Z,22.50
2018-07-05T19:35:02.397Z,22.40
2018-07-05T19:37:42.422Z,22.20
2018-07-05T19:40:22.054Z,22.10
2018-07-05T19:43:01.599Z,22.10
2018-07-05T19:45:41.111Z,22.00
2018-07-05T19:48:22.693Z,21.90
2018-07-05T19:51:02.708Z,21.80
2018-07-05T19:53:42.201Z,21.60
2018-07-05T19:56:21.975Z,21.60
2018-07-05T19:59:03.797Z,21.40
2018-07-05T20:01:43.450Z,21.40
2018-07-05T20:04:23.377Z,21.20
2018-07-05T20:07:03.382Z,21.10
2018-07-05T20:09:43.313Z,20.90
2018-07-05T20:12:23.511Z,20.80
2018-07-05T20:15:03.394Z,20.80
2018-07-05T20:17:42.970Z,20.70
2018-07-05T20:20:22.621Z,20.70
2018-07-05T20:25:39.594Z,20.40
2018-07-05T20:28:23.340Z,20.30
2018-07-05T20:31:02.950Z,20.20
2018-07-05T20:33:42.549Z,20.00
2018-07-05T20:36:21.997Z,19.90
2018-07-05T20:39:04.218Z,19.80
2018-07-05T20:41:44.427Z,19.70
2018-07-05T20:44:23.988Z,19.50
2018-07-05T20:47:03.730Z,19.40
2018-07-05T20:49:43.336Z,19.30
2018-07-05T20:52:23.485Z,19.20
2018-07-05T20:55:03.133Z,19.10
2018-07-05T20:57:42.473Z,18.90
2018-07-05T21:00:22.343Z,18.70
2018-07-05T21:03:02.571Z,18.60
2018-07-05T21:05:42.063Z,18.60
2018-07-05T21:08:22.534Z,18.50
2018-07-05T21:13:35.881Z,18.50
2018-07-05T21:16:15.409Z,18.40
2018-07-05T21:18:55.030Z,18.40
2018-07-05T21:21:35.037Z,18.50
2018-07-05T21:24:14.494Z,18.40
2018-07-05T21:26:53.968Z,18.30
2018-07-05T21:29:33.396Z,18.20
2018-07-05T21:32:12.865Z,18.10
2018-07-05T21:34:53.017Z,18.00
2018-07-05T21:37:32.705Z,17.90
2018-07-05T21:40:12.499Z,17.70
2018-07-05T21:42:52.306Z,17.50
2018-07-05T21:45:33.094Z,17.40
2018-07-05T21:48:12.447Z,17.40
2018-07-05T21:50:52.792Z,17.30
2018-07-05T21:53:32.937Z,17.20
2018-07-05T21:56:12.734Z,17.20
2018-07-05T21:58:52.237Z,17.20
2018-07-05T22:01:31.724Z,17.10
2018-07-05T22:04:11.322Z,17.20
2018-07-05T22:06:50.881Z,17.10
2018-07-05T22:09:32.283Z,17.10
2018-07-05T22:12:13.090Z,17.00
2018-07-05T22:14:52.651Z,17.10
2018-07-05T22:17:37.733Z,17.10
2018-07-05T22:23:14.025Z,17.10
2018-07-05T22:25:59.301Z,17.00
2018-07-05T22:28:48.781Z,17.00
2018-07-05T22:31:30.932Z,16.90
2018-07-05T22:34:12.713Z,16.80
2018-07-05T22:36:52.168Z,16.70
2018-07-05T22:39:32.824Z,16.60
2018-07-05T22:42:12.297Z,16.60
2018-07-05T22:44:52.737Z,16.60
2018-07-05T22:47:32.401Z,16.50
2018-07-05T22:50:12.874Z,16.60
2018-07-05T22:52:53.130Z,16.70
2018-07-05T22:55:32.529Z,16.60
2018-07-05T22:58:12.091Z,16.50
2018-07-05T23:00:54.198Z,16.30
2018-07-05T23:03:34.693Z,16.20
2018-07-05T23:06:14.318Z,16.10
2018-07-05T23:08:56.250Z,16.00
2018-07-05T23:11:39.540Z,16.10
2018-07-05T23:14:19.541Z,16.10
2018-07-05T23:17:03.680Z,16.10
2018-07-05T23:19:43.629Z,16.00
2018-07-05T23:22:25.274Z,15.90
2018-07-05T23:25:05.789Z,15.90
2018-07-05T23:27:51.670Z,15.80
2018-07-05T23:30:32.981Z,15.70
2018-07-05T23:33:12.689Z,15.50
2018-07-05T23:35:54.132Z,15.20
2018-07-05T23:38:33.697Z,15.10
2018-07-05T23:41:13.045Z,15.00
2018-07-05T23:43:52.685Z,14.90
2018-07-05T23:46:33.422Z,14.80
2018-07-05T23:49:12.823Z,14.70
2018-07-05T23:54:42.637Z,14.70
2018-07-05T23:57:23.054Z,14.60
